Time;durP1;ratioP1;P1;durP2;ratioP2;P2;SDS_P1;SDS_P2;PMS_P1;PMS_P2;Temp;Humidity;BMP_temperature;BMP_pressure;BME280_temperature;BME280_humidity;BME280_pressure;Samples;Min_cycle;Max_cycle;Signal;HPM_P1;HPM_P2
2021/10/17 00:01:41;;;;;;;9.30;4.43;;;9.10;1.00;;;;;;5037431;28;20176;-74
2021/10/17 00:04:11;;;;;;;4.43;3.23;;;9.10;1.00;;;;;;5048595;28;20423;-73
2021/10/17 00:06:36;;;;;;;7.67;4.10;;;9.00;1.00;;;;;;5051932;28;20481;-73
2021/10/17 00:09:02;;;;;;;6.03;3.30;;;9.00;1.00;;;;;;5036887;28;20795;-73
2021/10/17 00:11:28;;;;;;;7.67;3.60;;;8.80;1.00;;;;;;5055524;28;20179;-73
2021/10/17 00:13:54;;;;;;;11.17;4.70;;;8.80;1.00;;;;;;5043385;28;20430;-73
2021/10/17 00:16:20;;;;;;;7.87;4.13;;;8.60;1.00;;;;;;5043651;28;20329;-73
2021/10/17 00:18:47;;;;;;;7.07;3.80;;;8.50;1.00;;;;;;5048723;28;20164;-73
2021/10/17 00:21:13;;;;;;;12.13;4.43;;;8.40;1.00;;;;;;5050169;28;20419;-73
2021/10/17 00:23:41;;;;;;;9.53;3.60;;;8.40;1.00;;;;;;5039303;28;20976;-73
2021/10/17 00:26:17;;;;;;;7.90;4.27;;;8.30;1.00;;;;;;5055169;28;20402;-73
2021/10/17 00:28:43;;;;;;;6.07;3.87;;;8.30;1.00;;;;;;5054962;28;20418;-73
2021/10/17 00:31:08;;;;;;;8.37;4.07;;;8.20;1.00;;;;;;5043463;28;20403;-73
2021/10/17 00:33:34;;;;;;;7.27;3.63;;;8.10;1.00;;;;;;5054519;28;20175;-73
2021/10/17 00:36:00;;;;;;;7.53;3.30;;;8.00;1.00;;;;;;5045931;28;20168;-74
2021/10/17 00:38:25;;;;;;;7.40;3.60;;;8.00;1.00;;;;;;5049877;28;20175;-73
2021/10/17 00:40:53;;;;;;;6.17;3.57;;;8.00;1.00;;;;;;5056043;28;20810;-73
2021/10/17 00:43:23;;;;;;;5.63;4.17;;;8.00;1.00;;;;;;5055830;28;20202;-73
2021/10/17 00:45:49;;;;;;;8.67;4.50;;;7.90;1.00;;;;;;5055192;28;20423;-75
2021/10/17 00:48:15;;;;;;;5.83;3.77;;;8.00;1.00;;;;;;5043190;28;20411;-76
2021/10/17 00:50:41;;;;;;;7.67;3.50;;;7.90;1.00;;;;;;5051622;28;20462;-75
2021/10/17 00:53:11;;;;;;;9.30;4.20;;;7.90;1.00;;;;;;5057600;28;20243;-75
2021/10/17 00:55:37;;;;;;;8.20;4.03;;;7.90;1.00;;;;;;5054628;28;20508;-75
2021/10/17 00:58:02;;;;;;;5.10;3.50;;;7.90;1.00;;;;;;5047464;28;20548;-75
2021/10/17 01:00:28;;;;;;;5.50;3.53;;;7.90;1.00;;;;;;5056253;28;20259;-75
2021/10/17 01:02:54;;;;;;;4.50;3.50;;;;;;;;;;5054986;28;20569;-73
2021/10/17 01:05:21;;;;;;;6.13;4.07;;;7.90;1.00;;;;;;5044571;28;20415;-73
2021/10/17 01:07:47;;;;;;;7.10;4.53;;;7.90;1.00;;;;;;5054089;28;20410;-73
2021/10/17 01:10:15;;;;;;;8.20;3.47;;;8.00;1.00;;;;;;5055692;28;20410;-74
2021/10/17 01:12:40;;;;;;;6.17;4.27;;;8.00;1.00;;;;;;5054162;28;20421;-73
2021/10/17 01:15:07;;;;;;;8.90;3.97;;;8.00;1.00;;;;;;5053016;28;20495;-73
2021/10/17 01:17:47;;;;;;;6.50;3.30;;;8.10;1.00;;;;;;5049771;28;20731;-73
2021/10/17 01:20:12;;;;;;;9.77;4.77;;;8.00;1.00;;;;;;5055005;28;20932;-73
2021/10/17 01:22:41;;;;;;;6.40;4.00;;;8.10;1.00;;;;;;5040848;28;20419;-74
2021/10/17 01:25:08;;;;;;;5.77;4.13;;;8.20;1.00;;;;;;5045107;28;20164;-74
2021/10/17 01:27:33;;;;;;;10.90;3.47;;;8.20;1.00;;;;;;5039349;28;20423;-73
2021/10/17 01:29:59;;;;;;;8.07;3.97;;;8.30;1.00;;;;;;5045081;28;20418;-74
2021/10/17 01:32:25;;;;;;;5.57;3.53;;;8.30;1.00;;;;;;5054148;28;20176;-75
2021/10/17 01:34:53;;;;;;;26.67;4.00;;;8.40;1.00;;;;;;5041059;28;20509;-75
2021/10/17 01:37:29;;;;;;;4.80;3.50;;;8.40;1.00;;;;;;5044106;28;20236;-75
2021/10/17 01:39:55;;;;;;;21.73;4.43;;;8.40;1.00;;;;;;5053842;28;20458;-75
2021/10/17 01:42:20;;;;;;;5.17;3.90;;;8.50;1.00;;;;;;5037344;28;20411;-75
2021/10/17 01:44:47;;;;;;;7.13;3.73;;;8.50;1.00;;;;;;5035257;28;20250;-75
2021/10/17 01:47:17;;;;;;;6.00;3.47;;;8.60;1.00;;;;;;5046756;28;20512;-75
2021/10/17 01:49:43;;;;;;;5.07;3.60;;;8.60;1.00;;;;;;5047100;28;20909;-75
2021/10/17 01:52:09;;;;;;;6.33;4.10;;;8.70;1.00;;;;;;5055021;28;20409;-75
2021/10/17 01:54:35;;;;;;;3.73;3.20;;;8.70;1.00;;;;;;5054647;28;20259;-75
2021/10/17 01:57:11;;;;;;;5.90;4.03;;;8.80;1.00;;;;;;5053271;28;20461;-75
2021/10/17 01:59:37;;;;;;;15.30;3.90;;;8.80;1.00;;;;;;5045907;28;20411;-75
2021/10/17 02:02:03;;;;;;;16.77;4.07;;;8.80;1.00;;;;;;5045247;28;20411;-73
2021/10/17 02:04:29;;;;;;;18.87;4.03;;;;;;;;;;5048632;28;20179;-73
2021/10/17 02:06:54;;;;;;;10.40;4.30;;;8.90;1.00;;;;;;5053923;28;20473;-74
2021/10/17 02:09:23;;;;;;;7.67;3.43;;;8.90;1.00;;;;;;5048891;28;20933;-73
2021/10/17 02:11:49;;;;;;;5.00;3.57;;;8.90;1.00;;;;;;5038668;28;20180;-73
2021/10/17 02:14:14;;;;;;;9.20;3.80;;;8.90;1.00;;;;;;5047832;28;20410;-73
2021/10/17 02:16:40;;;;;;;11.20;3.70;;;8.90;1.00;;;;;;5036670;28;20246;-75
2021/10/17 02:19:11;;;;;;;5.07;3.70;;;9.00;1.00;;;;;;5039704;28;20180;-75
2021/10/17 02:21:37;;;;;;;19.00;4.30;;;9.00;1.00;;;;;;5054043;28;20422;-75
2021/10/17 02:24:03;;;;;;;7.20;3.70;;;9.00;1.00;;;;;;5054431;28;20399;-75
2021/10/17 02:26:35;;;;;;;6.03;3.40;;;9.00;1.00;;;;;;5051710;28;20168;-75
2021/10/17 02:29:00;;;;;;;8.83;3.87;;;9.00;1.00;;;;;;5051009;28;20414;-75
2021/10/17 02:31:29;;;;;;;5.70;3.40;;;9.00;1.00;;;;;;5043569;28;20422;-75
2021/10/17 02:33:55;;;;;;;6.93;3.33;;;9.00;1.00;;;;;;5052170;28;20729;-76
2021/10/17 02:36:20;;;;;;;5.40;3.10;;;9.00;1.00;;;;;;5046577;28;20493;-76
2021/10/17 02:38:46;;;;;;;7.40;3.63;;;9.00;1.00;;;;;;5034574;28;20266;-75
2021/10/17 02:41:12;;;;;;;11.60;3.93;;;9.00;1.00;;;;;;5043503;28;20179;-75
2021/10/17 02:43:38;;;;;;;14.30;3.77;;;9.00;1.00;;;;;;5053912;28;20156;-75
2021/10/17 02:46:04;;;;;;;4.63;3.20;;;9.00;1.00;;;;;;5047793;28;20414;-75
2021/10/17 02:48:29;;;;;;;4.03;3.40;;;9.00;1.00;;;;;;5054066;28;20294;-73
2021/10/17 02:50:59;;;;;;;5.53;3.33;;;9.00;1.00;;;;;;5046814;28;20184;-73
2021/10/17 02:53:25;;;;;;;3.47;2.80;;;9.00;1.00;;;;;;5045098;28;20172;-73
2021/10/17 02:55:51;;;;;;;5.17;3.00;;;9.00;1.00;;;;;;5042752;28;20429;-73
2021/10/17 02:58:17;;;;;;;7.30;3.17;;;9.00;1.00;;;;;;5049929;28;20494;-73
2021/10/17 03:00:47;;;;;;;3.73;3.03;;;9.00;1.00;;;;;;5044560;28;20533;-74
2021/10/17 03:03:13;;;;;;;3.43;3.00;;;8.90;1.00;;;;;;5050360;28;20654;-74
2021/10/17 03:05:38;;;;;;;4.23;2.50;;;8.90;1.00;;;;;;5043063;28;20411;-73
2021/10/17 03:08:04;;;;;;;14.27;4.03;;;8.80;1.00;;;;;;5050782;28;20629;-73
2021/10/17 03:10:35;;;;;;;5.30;3.00;;;8.90;1.00;;;;;;5051346;28;20199;-74
2021/10/17 03:13:11;;;;;;;2.50;2.30;;;8.80;1.00;;;;;;5052470;28;20426;-73
2021/10/17 03:15:37;;;;;;;6.47;2.90;;;8.70;1.00;;;;;;5040815;28;20985;-73
2021/10/17 03:18:02;;;;;;;5.43;2.90;;;8.70;1.00;;;;;;5045159;28;20538;-74
2021/10/17 03:20:28;;;;;;;4.87;2.43;;;8.70;1.00;;;;;;5042277;28;20200;-74
2021/10/17 03:22:54;;;;;;;8.03;3.40;;;8.60;1.00;;;;;;5047068;28;20180;-73
2021/10/17 03:25:19;;;;;;;3.67;2.60;;;8.60;1.00;;;;;;5033429;28;20271;-74
2021/10/17 03:27:45;;;;;;;12.37;2.83;;;8.60;1.00;;;;;;5050503;28;20709;-74
2021/10/17 03:30:11;;;;;;;6.80;3.03;;;8.60;1.00;;;;;;5051331;28;20626;-73
2021/10/17 03:32:37;;;;;;;6.13;2.60;;;8.60;1.00;;;;;;5040147;28;20183;-74
2021/10/17 03:35:03;;;;;;;5.70;3.03;;;8.60;1.00;;;;;;5052991;28;20252;-74
2021/10/17 03:37:33;;;;;;;4.43;2.63;;;8.50;1.00;;;;;;5043321;28;20207;-73
2021/10/17 03:39:59;;;;;;;5.73;2.60;;;;;;;;;;5045257;28;20955;-73
2021/10/17 03:42:25;;;;;;;5.20;2.90;;;8.50;1.00;;;;;;5052682;28;20446;-73
2021/10/17 03:44:51;;;;;;;5.53;3.40;;;8.60;1.00;;;;;;5040257;28;20415;-74
2021/10/17 03:47:17;;;;;;;4.40;2.20;;;8.50;1.00;;;;;;5039835;28;21032;-74
2021/10/17 03:49:43;;;;;;;5.90;2.70;;;8.60;1.00;;;;;;5053545;28;20442;-75
2021/10/17 03:52:09;;;;;;;6.37;3.00;;;8.60;1.00;;;;;;5042646;28;20588;-75
2021/10/17 03:54:35;;;;;;;6.43;2.90;;;8.70;1.00;;;;;;5053289;28;20418;-75
2021/10/17 03:57:01;;;;;;;5.33;2.97;;;8.60;1.00;;;;;;5052830;28;20249;-75
2021/10/17 03:59:26;;;;;;;6.20;3.53;;;8.60;1.00;;;;;;5051330;28;20414;-75
2021/10/17 04:01:53;;;;;;;5.10;2.80;;;8.60;1.00;;;;;;5041656;28;20171;-75
2021/10/17 04:04:18;;;;;;;6.27;3.13;;;8.70;1.00;;;;;;5053310;28;20247;-75
2021/10/17 04:06:53;;;;;;;3.53;2.50;;;8.70;1.00;;;;;;5052874;28;20820;-75
2021/10/17 04:09:18;;;;;;;5.27;2.80;;;8.80;1.00;;;;;;5041679;28;20230;-76
2021/10/17 04:11:47;;;;;;;2.93;2.50;;;8.70;1.00;;;;;;5053428;28;20877;-75
2021/10/17 04:14:29;;;;;;;6.90;2.90;;;8.80;1.00;;;;;;5052012;28;20156;-75
2021/10/17 04:16:59;;;;;;;4.37;2.90;;;8.80;1.00;;;;;;5032800;28;20546;-75
2021/10/17 04:19:25;;;;;;;6.90;2.87;;;8.80;1.00;;;;;;5040589;28;20430;-75
2021/10/17 04:21:50;;;;;;;5.50;3.23;;;8.80;1.00;;;;;;5045310;28;20484;-75
2021/10/17 04:24:16;;;;;;;7.43;3.00;;;8.80;1.00;;;;;;5036036;28;20259;-75
2021/10/17 04:26:42;;;;;;;3.27;2.40;;;8.90;1.00;;;;;;5047024;28;20172;-75
2021/10/17 04:29:07;;;;;;;5.73;2.60;;;8.90;1.00;;;;;;5043988;28;20632;-75
2021/10/17 04:31:41;;;;;;;6.10;2.97;;;8.90;1.00;;;;;;5042767;28;20187;-79
2021/10/17 04:34:07;;;;;;;3.30;2.80;;;8.90;1.00;;;;;;5056974;28;20222;-74
2021/10/17 04:36:32;;;;;;;4.87;2.60;;;9.00;1.00;;;;;;5053413;28;20450;-74
2021/10/17 04:38:58;;;;;;;2.73;2.53;;;9.00;1.00;;;;;;5049514;28;20266;-73
2021/10/17 04:41:24;;;;;;;3.00;2.63;;;9.00;1.00;;;;;;5036358;28;20191;-75
2021/10/17 04:43:50;;;;;;;2.50;2.30;;;9.00;1.00;;;;;;5041049;28;20282;-74
2021/10/17 04:46:16;;;;;;;4.80;2.47;;;9.00;1.00;;;;;;5044747;28;20933;-73
2021/10/17 04:48:42;;;;;;;6.10;2.67;;;9.00;1.00;;;;;;5039823;28;20267;-74
2021/10/17 04:51:17;;;;;;;2.20;2.00;;;9.00;1.00;;;;;;5064170;28;20171;-73
2021/10/17 04:53:43;;;;;;;6.23;2.57;;;9.00;1.00;;;;;;5055704;28;20217;-73
2021/10/17 04:56:08;;;;;;;3.80;2.60;;;9.10;1.00;;;;;;5053629;28;20418;-73
2021/10/17 04:58:34;;;;;;;3.83;2.70;;;;;;;;;;5050599;28;20263;-73
2021/10/17 05:01:00;;;;;;;2.93;2.47;;;9.00;1.00;;;;;;5038883;28;20172;-74
2021/10/17 05:03:26;;;;;;;4.43;3.00;;;9.10;1.00;;;;;;5037550;28;20886;-74
2021/10/17 05:05:51;;;;;;;3.47;2.57;;;9.10;1.00;;;;;;5049385;28;20628;-73
2021/10/17 05:08:17;;;;;;;10.87;2.90;;;9.10;1.00;;;;;;5054690;28;20421;-73
2021/10/17 05:10:43;;;;;;;9.90;3.50;;;9.10;1.00;;;;;;5053476;28;20183;-73
2021/10/17 05:13:11;;;;;;;3.17;2.87;;;9.10;1.00;;;;;;5042047;28;20176;-74
2021/10/17 05:15:41;;;;;;;9.13;3.30;;;9.10;1.00;;;;;;5055649;28;20637;-73
2021/10/17 05:18:07;;;;;;;2.87;2.60;;;9.10;1.00;;;;;;5055317;28;20805;-73
2021/10/17 05:20:34;;;;;;;3.20;1.90;;;9.10;1.00;;;;;;5043278;28;20948;-77
2021/10/17 05:23:00;;;;;;;5.93;2.97;;;9.10;1.00;;;;;;5042327;28;20418;-76
2021/10/17 05:25:27;;;;;;;2.93;2.43;;;9.10;1.00;;;;;;5055459;28;20746;-76
2021/10/17 05:27:52;;;;;;;3.10;2.60;;;9.10;1.00;;;;;;5055384;28;20434;-76
2021/10/17 05:30:19;;;;;;;7.60;3.10;;;9.20;1.00;;;;;;5050243;28;20454;-76
2021/10/17 05:32:47;;;;;;;4.77;2.83;;;9.20;1.00;;;;;;5047035;28;20815;-76
2021/10/17 05:35:17;;;;;;;3.13;2.80;;;9.20;1.00;;;;;;5041874;28;20417;-75
2021/10/17 05:37:43;;;;;;;4.70;3.23;;;9.20;1.00;;;;;;5042342;28;20570;-76
2021/10/17 05:40:10;;;;;;;6.97;3.23;;;9.10;1.00;;;;;;5048207;28;20513;-76
2021/10/17 05:42:42;;;;;;;4.70;3.00;;;9.20;1.00;;;;;;5054363;28;20776;-76
2021/10/17 05:45:08;;;;;;;5.17;3.20;;;9.10;1.00;;;;;;5040625;28;20430;-76
2021/10/17 05:47:35;;;;;;;6.90;2.80;;;9.20;1.00;;;;;;5043378;28;20428;-76
2021/10/17 05:50:00;;;;;;;4.23;2.63;;;9.10;1.00;;;;;;5055317;28;20414;-76
2021/10/17 05:52:29;;;;;;;5.93;2.97;;;9.20;1.00;;;;;;5048326;28;20431;-76
2021/10/17 05:54:55;;;;;;;3.97;3.00;;;9.20;1.00;;;;;;5050901;28;20226;-75
2021/10/17 05:57:21;;;;;;;9.57;3.30;;;9.20;1.00;;;;;;5054746;28;20442;-76
2021/10/17 05:59:47;;;;;;;5.67;2.67;;;9.20;1.00;;;;;;5051669;28;20415;-76
2021/10/17 06:02:12;;;;;;;4.03;2.93;;;9.20;1.00;;;;;;5043352;28;20454;-76
2021/10/17 06:04:38;;;;;;;2.50;2.30;;;9.20;1.00;;;;;;5050995;28;20587;-73
2021/10/17 06:07:04;;;;;;;3.67;2.60;;;9.20;1.00;;;;;;5054560;28;20178;-73
2021/10/17 06:09:34;;;;;;;8.50;2.80;;;9.30;1.00;;;;;;5041464;28;20933;-73
2021/10/17 06:12:02;;;;;;;4.23;3.20;;;9.30;1.00;;;;;;5051766;28;20414;-73
2021/10/17 06:14:28;;;;;;;5.53;2.30;;;9.30;1.00;;;;;;5050434;28;20402;-73
2021/10/17 06:16:53;;;;;;;2.60;2.40;;;9.40;1.00;;;;;;5053913;28;20959;-73
2021/10/17 06:19:23;;;;;;;9.97;2.93;;;9.30;1.00;;;;;;5051840;28;20202;-75
2021/10/17 06:21:53;;;;;;;3.73;2.57;;;9.30;1.00;;;;;;5048919;28;20626;-75
2021/10/17 06:24:19;;;;;;;2.70;2.20;;;9.30;1.00;;;;;;5042000;28;20422;-75
2021/10/17 06:26:45;;;;;;;8.00;2.87;;;9.30;1.00;;;;;;5054391;28;20432;-76
2021/10/17 06:29:12;;;;;;;5.03;2.97;;;9.40;1.00;;;;;;5049713;28;20184;-76
2021/10/17 06:31:41;;;;;;;2.70;2.30;;;9.40;1.00;;;;;;5051057;28;20410;-75
2021/10/17 06:34:07;;;;;;;5.10;2.80;;;9.50;1.00;;;;;;5050428;28;20411;-75
2021/10/17 06:36:35;;;;;;;4.17;2.50;;;9.50;1.00;;;;;;5063024;28;20489;-75
2021/10/17 06:39:03;;;;;;;4.00;3.00;;;9.50;1.00;;;;;;5061303;28;20949;-75
2021/10/17 06:41:29;;;;;;;4.17;2.37;;;9.50;1.00;;;;;;5069320;28;20413;-75
2021/10/17 06:43:59;;;;;;;6.10;2.47;;;9.50;1.00;;;;;;5072697;28;20487;-76
2021/10/17 06:46:25;;;;;;;3.90;2.83;;;9.60;1.00;;;;;;5074148;28;20390;-75
2021/10/17 06:48:51;;;;;;;6.77;3.23;;;9.60;1.00;;;;;;5063682;28;20406;-76
2021/10/17 06:51:18;;;;;;;7.37;3.20;;;9.60;1.00;;;;;;5053702;28;20905;-74
2021/10/17 06:53:44;;;;;;;4.73;2.77;;;9.70;1.00;;;;;;5052410;28;20513;-76
2021/10/17 06:56:14;;;;;;;3.07;2.77;;;9.80;1.00;;;;;;5031673;28;20525;-76
2021/10/17 06:58:40;;;;;;;3.83;2.50;;;9.80;1.00;;;;;;5036733;28;20412;-77
2021/10/17 07:01:11;;;;;;;3.80;3.30;;;9.90;1.00;;;;;;5041312;28;20473;-78
2021/10/17 07:03:37;;;;;;;10.97;3.47;;;;;;;;;;5033812;28;20517;-75
2021/10/17 07:06:06;;;;;;;3.00;2.70;;;10.10;1.00;;;;;;5046971;28;20446;-75
2021/10/17 07:08:35;;;;;;;12.50;3.70;;;10.10;1.00;;;;;;5036582;28;20423;-77
2021/10/17 07:11:01;;;;;;;4.00;3.10;;;10.10;1.00;;;;;;5047723;28;20418;-76
2021/10/17 07:13:27;;;;;;;6.10;3.50;;;10.10;1.00;;;;;;5043567;28;20457;-75
2021/10/17 07:15:53;;;;;;;7.43;3.20;;;10.20;1.00;;;;;;5052911;28;20450;-74
2021/10/17 07:18:19;;;;;;;6.20;3.67;;;;;;;;;;5040863;28;20196;-75
2021/10/17 07:20:53;;;;;;;7.60;3.37;;;10.30;1.00;;;;;;5041112;28;20415;-75
2021/10/17 07:23:19;;;;;;;4.40;3.30;;;10.30;1.00;;;;;;5037631;28;20410;-75
2021/10/17 07:25:45;;;;;;;4.50;2.87;;;10.30;1.00;;;;;;5048689;28;20947;-75
2021/10/17 07:28:11;;;;;;;5.50;2.97;;;10.40;1.00;;;;;;5051991;28;20418;-75
2021/10/17 07:30:37;;;;;;;5.63;3.17;;;;;;;;;;5051605;28;20521;-75
2021/10/17 07:33:05;;;;;;;11.73;2.83;;;10.50;1.00;;;;;;5070459;28;20402;-74
2021/10/17 07:35:31;;;;;;;10.30;3.57;;;;;;;;;;5044913;28;20477;-77
2021/10/17 07:38:05;;;;;;;7.37;3.43;;;10.70;1.00;;;;;;5053336;28;20472;-80
2021/10/17 07:40:31;;;;;;;5.17;3.23;;;10.70;1.00;;;;;;5039953;28;20524;-77
2021/10/17 07:43:11;;;;;;;7.37;2.53;;;10.80;1.00;;;;;;5043570;28;20880;-76
2021/10/17 07:45:47;;;;;;;4.93;3.20;;;10.90;1.00;;;;;;5051834;28;20518;-76
2021/10/17 07:48:12;;;;;;;12.90;3.80;;;10.90;1.00;;;;;;5040892;28;20422;-76
2021/10/17 07:50:39;;;;;;;6.87;3.87;;;;;;;;;;5049787;28;20418;-77
2021/10/17 07:53:04;;;;;;;2.83;2.63;;;11.00;1.00;;;;;;5046577;28;20590;-76
2021/10/17 07:55:30;;;;;;;3.00;2.67;;;11.00;1.00;;;;;;5040468;28;20434;-76
2021/10/17 07:57:58;;;;;;;4.87;3.10;;;;;;;;;;5044894;28;20199;-77
2021/10/17 08:00:25;;;;;;;4.87;3.20;;;11.20;1.00;;;;;;5046283;28;20449;-76
2021/10/17 08:02:51;;;;;;;7.70;2.80;;;;;;;;;;5044367;28;20422;-76
2021/10/17 08:05:17;;;;;;;4.43;3.80;;;11.40;1.00;;;;;;5052076;28;20781;-74
2021/10/17 08:07:47;;;;;;;5.57;3.23;;;11.50;1.00;;;;;;5056294;28;20402;-75
2021/10/17 08:10:14;;;;;;;3.20;2.90;;;11.60;1.00;;;;;;5057031;28;20394;-75
2021/10/17 08:12:42;;;;;;;6.20;3.47;;;11.60;1.00;;;;;;5048654;28;20897;-78
2021/10/17 08:15:11;;;;;;;3.73;2.90;;;11.70;1.00;;;;;;5055035;28;20429;-75
2021/10/17 08:17:38;;;;;;;6.70;3.40;;;11.70;1.00;;;;;;5041084;28;20450;-75
2021/10/17 08:20:08;;;;;;;4.97;2.70;;;11.80;1.00;;;;;;5046133;28;20410;-75
2021/10/17 08:22:36;;;;;;;4.07;2.83;;;11.90;1.00;;;;;;5038455;28;20577;-75
2021/10/17 08:25:11;;;;;;;8.43;3.57;;;12.00;1.00;;;;;;5046579;28;20410;-75
2021/10/17 08:27:40;;;;;;;6.00;3.30;;;12.10;1.00;;;;;;5042877;28;20428;-75
2021/10/17 08:30:08;;;;;;;8.50;3.20;;;12.20;1.00;;;;;;5056840;28;20405;-75
2021/10/17 08:32:34;;;;;;;6.20;3.70;;;12.20;1.00;;;;;;5048492;28;20461;-75
2021/10/17 08:35:00;;;;;;;6.93;3.07;;;;;;;;;;5056480;28;20972;-75
2021/10/17 08:37:26;;;;;;;5.40;3.20;;;12.40;1.00;;;;;;5047089;28;20219;-76
2021/10/17 08:39:53;;;;;;;5.73;3.23;;;12.40;1.00;;;;;;5048825;28;20442;-76
2021/10/17 08:42:19;;;;;;;5.70;3.40;;;12.40;1.00;;;;;;5045164;28;20907;-77
2021/10/17 08:44:45;;;;;;;6.83;3.30;;;12.50;1.00;;;;;;5036481;28;20486;-76
2021/10/17 08:47:13;;;;;;;3.23;2.70;;;12.70;1.00;;;;;;5042618;28;20424;-76
2021/10/17 08:49:49;;;;;;;6.27;3.37;;;12.80;1.00;;;;;;5055043;28;20486;-76
2021/10/17 08:52:15;;;;;;;9.00;3.50;;;12.80;1.00;;;;;;5052587;28;20508;-75
2021/10/17 08:54:44;;;;;;;5.60;3.27;;;12.90;1.00;;;;;;5042537;28;20888;-75
2021/10/17 08:57:10;;;;;;;6.73;3.47;;;13.10;1.00;;;;;;5056164;28;20199;-75
2021/10/17 08:59:48;;;;;;;5.00;3.20;;;13.20;1.00;;;;;;5042720;28;20472;-75
2021/10/17 09:02:15;;;;;;;4.57;3.10;;;13.40;1.00;;;;;;5056028;28;20172;-75
2021/10/17 09:04:42;;;;;;;13.23;3.80;;;13.40;1.00;;;;;;5039575;28;20866;-75
2021/10/17 09:07:18;;;;;;;9.53;3.40;;;13.40;1.00;;;;;;5046274;28;20428;-76
2021/10/17 09:10:16;;;;;;;9.70;3.30;;;13.50;1.00;;;;;;5038112;28;20494;-76
2021/10/17 09:12:44;;;;;;;3.33;2.53;;;13.70;1.00;;;;;;5016250;28;20435;-76
2021/10/17 09:15:25;;;;;;;13.10;3.40;;;13.80;1.00;;;;;;5033001;28;20427;-76
2021/10/17 09:18:26;;;;;;;4.70;2.80;;;13.90;1.00;;;;;;5033528;28;20462;-76
2021/10/17 09:20:55;;;;;;;3.60;2.40;;;14.00;1.00;;;;;;4958653;28;20425;-75
2021/10/17 09:23:37;;;;;;;9.40;3.40;;;14.10;1.00;;;;;;4974692;28;21012;-75
2021/10/17 09:26:16;;;;;;;8.53;2.90;;;14.10;1.00;;;;;;4974718;28;20510;-75
2021/10/17 09:28:50;;;;;;;8.23;3.20;;;14.20;1.00;;;;;;4974810;28;20480;-75
2021/10/17 09:31:18;;;;;;;5.90;3.23;;;14.20;1.00;;;;;;4974540;28;20941;-75
2021/10/17 09:33:53;;;;;;;7.67;2.57;;;14.20;1.00;;;;;;4974355;28;20433;-75
2021/10/17 09:36:23;;;;;;;3.10;2.43;;;14.20;1.00;;;;;;4958233;28;20441;-75
2021/10/17 09:38:53;;;;;;;4.80;2.70;;;14.30;1.00;;;;;;4974288;28;20421;-75
2021/10/17 09:41:20;;;;;;;5.60;2.80;;;14.20;1.00;;;;;;4974515;28;20474;-75
2021/10/17 09:43:57;;;;;;;5.67;3.47;;;14.30;1.00;;;;;;4974114;28;20445;-75
2021/10/17 09:46:23;;;;;;;6.17;3.20;;;14.30;1.00;;;;;;4974243;28;20445;-75
2021/10/17 09:48:50;;;;;;;8.57;2.97;;;14.30;1.00;;;;;;4961132;28;20456;-75
2021/10/17 09:51:26;;;;;;;2.57;1.80;;;14.30;1.00;;;;;;4993833;28;20548;-75
2021/10/17 09:53:54;;;;;;;7.43;2.97;;;14.40;1.00;;;;;;5025957;28;20506;-76
2021/10/17 09:56:27;;;;;;;3.57;2.57;;;14.40;1.00;;;;;;5049012;28;20755;-76
2021/10/17 09:58:52;;;;;;;4.53;2.37;;;14.40;1.00;;;;;;5048415;28;20427;-76
2021/10/17 10:01:24;;;;;;;3.40;2.30;;;14.40;1.00;;;;;;5048035;28;20420;-75
2021/10/17 10:03:55;;;;;;;6.30;3.00;;;14.30;1.00;;;;;;5042637;28;20187;-75
2021/10/17 10:06:23;;;;;;;10.10;2.70;;;14.40;1.00;;;;;;5048638;28;20404;-75
2021/10/17 10:08:51;;;;;;;2.57;2.37;;;14.50;1.00;;;;;;5034954;28;20389;-76
2021/10/17 10:11:22;;;;;;;8.87;2.70;;;14.60;1.00;;;;;;5048630;28;20385;-76
2021/10/17 10:13:51;;;;;;;5.13;2.67;;;14.80;1.00;;;;;;5048210;28;20501;-77
2021/10/17 10:16:21;;;;;;;3.30;2.23;;;14.90;1.00;;;;;;5049261;28;20528;-77
2021/10/17 10:18:56;;;;;;;5.50;2.93;;;15.00;1.00;;;;;;5053275;28;20446;-76
2021/10/17 10:21:22;;;;;;;4.67;2.40;;;;;;;;;;5053510;28;20475;-75
2021/10/17 10:23:50;;;;;;;4.67;2.70;;;15.50;1.00;;;;;;5053307;28;20830;-75
2021/10/17 10:26:17;;;;;;;4.60;2.70;;;;;;;;;;5041796;28;20524;-75
2021/10/17 10:28:43;;;;;;;5.87;2.90;;;16.00;1.00;;;;;;5040025;28;20389;-75
2021/10/17 10:31:40;;;;;;;6.50;2.53;;;16.10;1.00;;;;;;5053146;28;20409;-75
2021/10/17 10:34:12;;;;;;;7.67;2.60;;;16.20;1.00;;;;;;5053411;28;20377;-75
2021/10/17 10:36:52;;;;;;;5.67;2.47;;;16.00;1.00;;;;;;5065181;28;20417;-75
2021/10/17 10:39:19;;;;;;;6.20;3.27;;;15.80;1.00;;;;;;5033525;28;20413;-75
2021/10/17 10:41:56;;;;;;;6.37;2.90;;;15.80;1.00;;;;;;5032859;28;20429;-75
2021/10/17 10:44:25;;;;;;;2.50;2.10;;;15.70;1.00;;;;;;5033307;28;20411;-75
2021/10/17 10:46:55;;;;;;;4.80;2.57;;;15.60;1.00;;;;;;5037278;28;20402;-75
2021/10/17 10:49:40;;;;;;;5.77;2.93;;;15.70;1.00;;;;;;5037483;28;20929;-75
2021/10/17 10:52:09;;;;;;;6.67;3.40;;;15.80;1.00;;;;;;5067273;28;20400;-75
2021/10/17 10:54:35;;;;;;;3.07;2.07;;;15.90;1.00;;;;;;5049204;28;20388;-76
2021/10/17 10:57:01;;;;;;;4.97;2.53;;;15.80;1.00;;;;;;5045369;28;20454;-76
2021/10/17 11:00:06;;;;;;;2.73;2.07;;;15.70;1.00;;;;;;5050091;28;20182;-76
2021/10/17 11:02:32;;;;;;;7.17;2.70;;;15.70;1.00;;;;;;5030532;28;20555;-76
2021/10/17 11:05:04;;;;;;;8.73;2.20;;;15.60;1.00;;;;;;5030852;28;20468;-76
2021/10/17 11:07:34;;;;;;;4.40;1.87;;;15.50;1.00;;;;;;5030867;28;20663;-75
2021/10/17 11:10:21;;;;;;;3.87;2.20;;;15.50;1.00;;;;;;5030757;28;20397;-75
2021/10/17 11:12:48;;;;;;;3.60;1.87;;;15.50;1.00;;;;;;5030513;28;20885;-75
2021/10/17 11:15:16;;;;;;;5.17;2.60;;;15.50;1.00;;;;;;5030671;28;20426;-75
2021/10/17 11:18:04;;;;;;;4.97;2.60;;;15.50;1.00;;;;;;5030492;28;20429;-75
2021/10/17 11:20:32;;;;;;;3.20;2.00;;;15.60;1.00;;;;;;5030514;28;20404;-75
2021/10/17 11:22:59;;;;;;;5.10;2.50;;;15.70;1.00;;;;;;5030894;28;20419;-75
2021/10/17 11:25:26;;;;;;;4.47;2.50;;;15.80;1.00;;;;;;5030453;28;20386;-75
2021/10/17 11:27:53;;;;;;;2.40;1.70;;;;;;;;;;5013793;28;20514;-76
2021/10/17 11:30:20;;;;;;;5.07;2.10;;;16.20;1.00;;;;;;5030521;28;20397;-76
2021/10/17 11:32:46;;;;;;;5.47;2.80;;;16.20;1.00;;;;;;5029184;28;20773;-76
2021/10/17 11:35:12;;;;;;;2.57;1.60;;;;;;;;;;5052121;28;20412;-76
2021/10/17 11:37:37;;;;;;;2.33;1.63;;;16.30;1.00;;;;;;5053441;28;20562;-75
2021/10/17 11:40:03;;;;;;;4.10;2.50;;;;;;;;;;5054937;28;20942;-76
2021/10/17 11:42:41;;;;;;;6.50;1.77;;;16.50;1.00;;;;;;5056210;28;20167;-76
2021/10/17 11:45:14;;;;;;;2.83;2.00;;;16.60;1.00;;;;;;5056250;28;20968;-76
2021/10/17 11:47:47;;;;;;;3.50;2.43;;;16.60;1.00;;;;;;5056392;28;20425;-76
2021/10/17 11:50:18;;;;;;;5.13;2.37;;;16.70;1.00;;;;;;5056436;28;20447;-76
2021/10/17 11:53:11;;;;;;;2.80;1.70;;;16.90;1.00;;;;;;5055223;28;20396;-75
2021/10/17 11:55:44;;;;;;;3.37;1.50;;;16.90;1.00;;;;;;5049503;28;20473;-77
2021/10/17 11:58:23;;;;;;;12.33;2.43;;;17.10;1.00;;;;;;5038372;28;20460;-76
2021/10/17 12:01:05;;;;;;;3.63;1.80;;;17.20;1.00;;;;;;5046321;28;20389;-76
2021/10/17 12:03:32;;;;;;;4.50;2.30;;;17.10;1.00;;;;;;5047197;28;20423;-77
2021/10/17 12:06:02;;;;;;;2.40;1.40;;;17.20;1.00;;;;;;5051169;28;20452;-76
2021/10/17 12:08:35;;;;;;;3.00;1.70;;;17.30;1.00;;;;;;5057384;28;20872;-76
2021/10/17 12:11:07;;;;;;;12.13;2.70;;;17.20;1.00;;;;;;5055578;28;20439;-76
2021/10/17 12:13:54;;;;;;;3.23;2.20;;;17.40;1.00;;;;;;5044655;28;20399;-77
2021/10/17 12:16:25;;;;;;;4.20;2.20;;;17.50;1.00;;;;;;5038748;28;20919;-77
2021/10/17 12:19:09;;;;;;;1.73;1.40;;;17.50;1.00;;;;;;5037233;28;20382;-77
2021/10/17 12:21:41;;;;;;;6.43;2.17;;;17.50;1.00;;;;;;5045196;28;20400;-77
2021/10/17 12:24:08;;;;;;;8.33;1.67;;;17.50;1.00;;;;;;5042167;28;20412;-77
2021/10/17 12:26:35;;;;;;;2.47;1.90;;;17.50;1.00;;;;;;5037155;28;20391;-77
2021/10/17 12:29:19;;;;;;;3.50;1.70;;;17.40;1.00;;;;;;5038939;28;20499;-77
2021/10/17 12:31:53;;;;;;;3.70;1.83;;;17.30;1.00;;;;;;5045586;28;20404;-76
2021/10/17 12:34:46;;;;;;;1.50;1.00;;;17.40;1.00;;;;;;5036062;28;20744;-75
2021/10/17 12:37:19;;;;;;;4.07;1.50;;;17.40;1.00;;;;;;5042509;28;20479;-77
2021/10/17 12:39:46;;;;;;;5.50;1.80;;;17.50;1.00;;;;;;5056717;28;20414;-76
2021/10/17 12:42:11;;;;;;;10.80;1.50;;;17.50;1.00;;;;;;5056351;28;20386;-76
2021/10/17 12:44:49;;;;;;;2.50;1.50;;;17.70;1.00;;;;;;5052564;28;20379;-76
2021/10/17 12:47:16;;;;;;;3.83;1.70;;;17.90;1.00;;;;;;5056036;28;20275;-75
2021/10/17 12:49:43;;;;;;;4.50;1.73;;;;;;;;;;5054868;28;20390;-76
2021/10/17 12:52:30;;;;;;;3.90;1.23;;;17.60;1.00;;;;;;5050238;28;20408;-75
2021/10/17 12:54:59;;;;;;;7.97;2.40;;;17.50;1.00;;;;;;5044153;28;20421;-77
2021/10/17 12:57:25;;;;;;;3.20;1.90;;;17.60;1.00;;;;;;5055307;28;20543;-77
2021/10/17 13:00:09;;;;;;;3.60;1.60;;;17.60;1.00;;;;;;5053924;28;20474;-77
2021/10/17 13:02:38;;;;;;;2.63;1.43;;;17.40;1.00;;;;;;5056250;28;20161;-77
2021/10/17 13:05:14;;;;;;;4.77;2.03;;;17.30;1.00;;;;;;5038137;28;20462;-77
2021/10/17 13:07:40;;;;;;;5.70;1.40;;;17.40;1.00;;;;;;5042144;28;20420;-77
2021/10/17 13:10:17;;;;;;;2.20;1.80;;;17.30;1.00;;;;;;5034871;28;20960;-75
2021/10/17 13:12:54;;;;;;;3.33;1.53;;;17.20;1.00;;;;;;5037132;28;20181;-76
2021/10/17 13:15:27;;;;;;;7.20;1.73;;;17.30;1.00;;;;;;5043800;28;20918;-76
2021/10/17 13:17:56;;;;;;;2.33;1.40;;;17.30;1.00;;;;;;5055536;28;20436;-76